< Typhoon 199431 1994 Season Typhoon 199433 >
Typhoon 199432 (WILDA)
General InformationTrack Information on Google MapsDetailed Wind InformationList of All Images || Disaster Info.ResourceGoogle EarthGE AnimationAtom FeedGeoJSON
Detalied Best Track (Time Zone = UTC)
Year Month Day Hour Lat. Long. Pressure (hPa) Wind (kt) Class Image Chart
1994 10 20 00 13.4 162.9 1004 0 2 Image Chart
1994 10 20 06 13.5 162.5 1002 0 2 Image Chart
1994 10 20 12 13.6 161.8 998 35 3 Image Chart
1994 10 20 18 13.8 161.2 996 35 3 Image Chart
1994 10 21 00 14.0 160.5 994 40 3 Image Chart
1994 10 21 06 14.3 159.8 992 40 3 Image Chart
1994 10 21 12 14.7 159.0 990 45 3 Image Chart
1994 10 21 18 15.0 158.3 985 50 4 Image Chart
1994 10 22 00 15.5 157.5 980 55 4 Image Chart
1994 10 22 06 15.9 156.7 970 65 5 Image Chart
1994 10 22 12 16.2 155.5 960 75 5 Image Chart
1994 10 22 18 16.5 154.4 955 80 5 Image Chart
1994 10 23 00 16.8 153.1 955 80 5 Image Chart
1994 10 23 06 16.8 152.0 950 80 5 Image Chart
1994 10 23 12 16.7 150.9 945 85 5 Image Chart
1994 10 23 18 16.6 149.8 940 85 5 Image Chart
1994 10 24 00 16.2 148.9 935 90 5 Image Chart
1994 10 24 06 16.0 148.2 935 90 5 Image Chart
1994 10 24 12 15.8 147.6 935 90 5 Image Chart
1994 10 24 18 15.6 147.3 940 85 5 Image Chart
1994 10 25 00 15.7 147.2 940 85 5 Image Chart
1994 10 25 06 15.9 147.2 940 85 5 Image Chart
1994 10 25 12 16.1 147.4 945 85 5 Image Chart
1994 10 25 18 16.5 147.7 950 80 5 Image Chart
1994 10 26 00 17.2 148.3 955 75 5 Image Chart
1994 10 26 06 18.1 149.0 960 75 5 Image Chart
1994 10 26 12 18.9 149.4 960 75 5 Image Chart
1994 10 26 18 19.6 149.8 960 75 5 Image Chart
1994 10 27 00 20.1 150.3 960 75 5 Image Chart
1994 10 27 06 20.5 150.7 960 75 5 Image Chart
1994 10 27 12 20.9 151.1 960 75 5 Image Chart
1994 10 27 18 21.5 151.4 960 75 5 Image Chart
1994 10 28 00 22.4 151.7 960 75 5 Image Chart
1994 10 28 06 23.0 151.5 960 75 5 Image Chart
1994 10 28 12 23.8 151.2 960 75 5 Image Chart
1994 10 28 18 24.2 151.2 960 75 5 Image Chart
1994 10 29 00 24.8 151.2 960 75 5 Image Chart
1994 10 29 06 25.3 150.9 960 75 5 Image Chart
1994 10 29 12 25.5 150.4 960 75 5 Image Chart
1994 10 29 18 26.0 150.0 960 75 5 Image Chart
1994 10 30 00 26.3 149.9 960 75 5 Image Chart
1994 10 30 06 26.9 150.0 965 70 5 Image Chart
1994 10 30 12 27.6 150.2 970 65 5 Image Chart
1994 10 30 18 29.0 150.6 975 60 4 Image Chart
1994 10 31 00 30.8 151.4 980 55 4 Image Chart
1994 10 31 06 32.1 152.7 980 55 4 Image Chart
1994 10 31 12 33.6 154.9 980 55 4 Image Chart
1994 10 31 18 35.6 158.0 985 50 4 Image Chart
1994 11 1 00 38.5 162.0 990 50 4 Image Chart
1994 11 1 06 40.5 167.5 996 0 6 Image Chart
1994 11 1 12 42.0 173.0 996 0 6 Image Chart
1994 11 1 18 45.0 178.0 994 0 6 Image Chart
1994 11 2 00 48.5 185.5 990 0 6 Image Chart
Japan Meteorological Agency Best Track Data | Correction Date : 1995-01-30
< Typhoon 199431 1994 Season Typhoon 199433 >

Help